Latest Weather Observations for Goulburn Airport

IDN60901

Issued at 7:51 pm EDT Wednesday 25 November 2020 (issued every 10 minutes, with the page automatically refreshed every 10 minutes)

About weather observations | Map of Canberra area stations | Latest observations for Canberra area | Other Formats
Station Details ID: 070330 Name: GOULBURN AIRPORT AWS Lat: -34.81 Lon: 149.73 Height: 640.0 m
Data from the previous 72 hours. | See also: Recent months at Goulburn Airport
Date/Time
EDT
Temp
°C
App
Temp
°C
Dew
Point
°C
Rel
Hum
%
Delta-T
°C
Wind Press
QNH
hPa
Press
MSL
hPa
Rain since
9am
mm
Dir  Spd
km/h
Gust
km/h
Spd
kts
Gust
kts
25/07:30pm 21.1 19.7 13.3 61 4.6 WNW 13 15 7 8 1012.4 1010.7 0.0
25/07:00pm 23.0 22.1 13.8 56 5.5 NW 11 17 6 9 1012.2 1010.5 0.0
25/06:30pm 23.8 21.8 12.8 50 6.5 NW 15 20 8 11 1011.9 1010.1 0.0
25/06:00pm 24.3 22.9 13.5 51 6.5 NW 13 17 7 9 1011.8 1010.0 0.0
25/05:30pm 23.4 21.0 12.7 51 6.3 NW 17 20 9 11 1011.7 1009.9 0.0
25/05:00pm 23.8 21.2 12.1 48 6.9 WNW 17 24 9 13 1011.7 1009.9 0.0
25/04:30pm 24.0 22.6 12.3 48 6.9 WNW 11 17 6 9 1012.0 1010.3 0.0
25/04:00pm 25.2 24.5 13.1 47 7.2 NW 9 20 5 11 1012.2 1010.5 0.0
25/03:30pm 23.1 20.5 12.1 50 6.4 WNW 17 24 9 13 1012.5 1010.8 0.0
25/03:00pm 24.1 23.2 12.7 49 6.8 WNW 9 28 5 15 1012.8 1011.1 0.0
25/02:30pm 23.1 23.2 13.8 55 5.6 N 6 11 3 6 1013.3 1011.5 0.0
25/02:00pm 22.7 23.4 12.3 52 6.1 CALM 0 0 0 0 1013.5 1011.8 0.0
25/01:30pm 22.7 22.0 13.2 55 5.6 NE 9 15 5 8 1013.9 1012.2 0.0
25/01:00pm 22.1 21.8 13.2 57 5.3 ENE 7 15 4 8 1014.2 1012.5 0.0
25/12:30pm 21.7 22.1 14.8 65 4.2 ENE 6 19 3 10 1014.5 1012.8 0.0
25/12:00pm 21.1 20.4 14.3 65 4.1 NNE 11 24 6 13 1015.0 1013.3 0.0
25/11:30am 19.3 17.4 13.0 67 3.7 ENE 15 22 8 12 1015.4 1013.7 0.0
25/11:00am 19.2 17.6 12.9 67 3.7 NE 13 24 7 13 1015.6 1013.9 0.0
25/10:30am 17.3 15.5 12.0 71 3.0 NNE 13 20 7 11 1015.7 1014.0 0.0
25/10:05am 17.4 15.1 12.9 75 2.6 NE 17 26 9 14 1015.8 1014.1 0.0
25/10:00am 17.5 15.7 13.2 76 2.5 NE 15 22 8 12 1015.9 1014.2 0.0
25/09:30am 15.3 13.3 12.8 85 1.4 NNE 15 20 8 11 1016.3 1014.7 0.0
25/09:00am 15.5 14.5 13.5 88 1.2 NE 11 17 6 9 1016.3 1014.7 0.0
25/08:30am 14.5 12.8 12.4 87 1.2 NE 13 15 7 8 1016.2 1014.6 0.0
25/08:00am 14.4 13.0 12.3 87 1.2 NE 11 17 6 9 1015.8 1014.1 0.0
25/07:30am 13.9 11.7 12.1 89 1.0 NE 15 20 8 11 1015.6 1013.9 0.0
25/07:00am 13.5 13.0 12.2 92 0.7 NE 6 9 3 5 1015.5 1013.8 0.0
25/06:30am 13.2 12.1 11.8 91 0.8 NE 9 13 5 7 1015.2 1013.5 0.0
25/06:00am 13.1 11.5 11.5 90 0.9 ENE 11 15 6 8 1014.9 1013.2 0.0
25/05:30am 13.2 12.8 12.3 94 0.5 ENE 6 9 3 5 1014.7 1013.1 0.0
25/05:00am 13.1 12.1 12.2 94 0.5 ENE 9 13 5 7 1014.4 1012.7 0.0
25/04:30am 13.1 11.3 12.0 93 0.6 ENE 13 15 7 8 1014.3 1012.6 0.0
25/04:00am 13.1 11.6 12.0 93 0.6 E 11 17 6 9 1014.3 1012.6 0.0
25/03:30am 13.0 12.0 12.2 95 0.4 ESE 9 11 5 6 1014.4 1012.7 0.0
25/03:14am 13.0 11.2 12.1 94 0.5 SE 13 15 7 8 1014.4 1012.7 0.0
25/03:00am 13.0 11.6 12.1 94 0.5 ESE 11 13 6 7 1014.3 1012.6 0.0
25/02:54am 13.0 11.6 12.1 94 0.5 ESE 11 13 6 7 1014.4 1012.7 0.0
25/02:30am 13.0 11.9 12.1 94 0.5 E 9 11 5 6 1014.5 1012.8 0.0
25/02:00am 12.9 11.8 12.1 95 0.4 ESE 9 11 5 6 1015.0 1013.3 0.0
25/01:30am 13.0 12.3 12.1 94 0.5 E 7 11 4 6 1015.3 1013.6 0.0
25/01:00am 13.1 12.0 11.8 92 0.7 ESE 9 15 5 8 1015.5 1013.8 0.0
25/12:30am 13.2 11.7 11.9 92 0.7 E 11 13 6 7 1015.6 1013.9 0.0
25/12:00am 13.3 11.9 12.2 93 0.6 E 11 15 6 8 1015.9 1014.2 0.0
 
Date/Time
EDT
Temp
°C
App
Temp
°C
Dew
Point
°C
Rel
Hum
%
Delta-T
°C
Wind Press
QNH
hPa
Press
MSL
hPa
Rain since
9am
mm
Dir  Spd
km/h
Gust
km/h
Spd
kts
Gust
kts
24/11:30pm 13.3 12.2 11.9 91 0.8 ESE 9 13 5 7 1015.9 1014.2 0.0
24/11:00pm 13.6 11.8 12.0 90 0.9 E 13 24 7 13 1015.8 1014.1 0.0
24/10:30pm 13.7 12.3 12.1 90 0.9 E 11 17 6 9 1015.7 1014.0 0.0
24/10:00pm 13.9 11.6 11.9 88 1.1 ESE 15 20 8 11 1015.6 1013.9 0.0
24/09:30pm 14.0 11.8 12.0 88 1.1 E 15 20 8 11 1015.3 1013.6 0.0
24/09:00pm 14.1 11.4 11.8 86 1.3 ESE 17 26 9 14 1014.9 1013.2 0.0
24/08:30pm 14.7 12.5 12.0 84 1.5 ESE 15 22 8 12 1014.3 1012.6 0.0
24/08:13pm 14.9 11.3 12.0 83 1.6 ESE 22 30 12 16 1014.2 1012.5 0.0
24/08:00pm 15.2 12.3 12.3 83 1.6 E 19 28 10 15 1013.8 1012.1 0.0
24/07:30pm 15.9 12.9 12.1 78 2.1 ESE 19 24 10 13 1013.7 1012.0 0.0
24/07:00pm 16.6 13.5 11.7 73 2.8 SE 19 24 10 13 1012.7 1011.0 0.0
24/06:30pm 17.5 14.7 11.5 68 3.4 ESE 17 22 9 12 1011.7 1009.9 0.0
24/06:00pm 18.7 15.6 11.5 63 4.1 E 19 30 10 16 1010.9 1009.2 0.0
24/05:30pm 20.4 18.8 11.6 57 5.0 ENE 11 15 6 8 1010.6 1008.9 0.0
24/05:00pm 20.7 18.3 11.3 55 5.4 E 15 22 8 12 1010.6 1008.9 0.0
24/04:30pm 22.2 21.4 9.7 45 7.0 SW 4 9 2 5 1010.6 1008.9 0.0
24/04:00pm 21.7 20.5 10.2 48 6.5 SSW 7 11 4 6 1010.9 1009.2 0.0
24/03:30pm 22.7 21.8 10.5 46 6.9 S 6 11 3 6 1011.2 1009.5 0.0
24/03:00pm 22.5 21.4 10.0 45 7.0 SW 6 11 3 6 1011.4 1009.7 0.0
24/02:30pm 21.4 20.0 9.6 47 6.5 ESE 7 11 4 6 1011.9 1010.1 0.0
24/02:00pm 21.3 20.6 11.3 53 5.7 E 6 11 3 6 1012.3 1010.6 0.0
24/01:30pm 19.8 18.3 10.5 55 5.2 E 9 13 5 7 1012.7 1011.0 0.0
24/01:00pm 20.4 19.0 9.6 50 6.0 SSE 7 13 4 7 1012.7 1011.0 0.0
24/12:30pm 20.6 19.5 12.1 58 4.9 SSW 9 13 5 7 1012.7 1011.0 0.0
24/12:00pm 18.8 17.8 10.9 60 4.4 SE 7 17 4 9 1012.8 1011.1 0.0
24/11:30am 17.9 16.4 10.5 62 4.1 ENE 9 15 5 8 1012.8 1011.1 0.0
24/11:00am 18.4 17.5 11.5 64 3.9 ENE 7 13 4 7 1012.8 1011.1 0.0
24/10:30am 17.7 15.9 10.8 64 3.8 E 11 17 6 9 1013.5 1011.8 0.0
24/10:00am 17.3 15.6 12.6 74 2.7 ESE 13 19 7 10 1013.9 1012.2 0.0
24/09:30am 17.0 14.6 11.5 70 3.1 ESE 15 19 8 10 1013.4 1011.7 0.0
24/09:00am 17.0 16.1 12.7 76 2.5 ESE 9 15 5 8 1013.5 1011.8 7.2
24/08:30am 15.8 15.0 12.9 83 1.7 ESE 9 15 5 8 1013.0 1011.3 7.2
24/08:00am 14.7 15.5 12.4 86 1.3 CALM 0 0 0 0 1012.7 1011.0 7.2
24/07:30am 13.8 14.8 13.2 96 0.3 CALM 0 0 0 0 1012.5 1010.8 7.2
24/07:00am 12.8 13.6 12.6 99 0.1 CALM 0 0 0 0 1012.1 1010.4 7.2
24/06:30am 10.9 10.0 10.7 99 0.1 SE 6 9 3 5 1012.1 1010.4 7.2
24/06:00am 10.1 10.2 10.0 99 0.1 CALM 0 0 0 0 1011.8 1010.0 7.2
24/05:38am 10.5 10.6 10.3 99 0.1 CALM 0 0 0 0 1011.6 1009.8 7.2
24/05:35am 10.6 10.8 10.4 99 0.1 CALM 0 0 0 0 1011.4 1009.7 7.2
24/05:30am 10.7 10.9 10.5 99 0.1 CALM 0 0 0 0 1011.4 1009.7 7.2
24/05:18am 10.8 11.0 10.6 99 0.1 CALM 0 0 0 0 1011.1 1009.4 7.2
24/05:00am 10.6 10.8 10.4 99 0.1 CALM 0 0 0 0 1010.9 1009.2 7.2
24/04:30am 11.0 10.1 10.8 99 0.1 SE 6 7 3 4 1010.5 1008.7 7.2
24/04:09am 11.3 10.5 11.1 99 0.1 SE 6 7 3 4 1010.5 1008.7 7.2
24/04:00am 11.5 11.2 11.3 99 0.1 SSE 4 7 2 4 1010.5 1008.7 7.2
24/03:30am 10.8 11.0 10.6 99 0.1 CALM 0 0 0 0 1010.6 1008.9 7.2
24/03:00am 11.1 11.4 10.9 99 0.1 CALM 0 0 0 0 1010.6 1008.9 7.2
24/02:30am 11.7 12.2 11.5 99 0.1 CALM 0 0 0 0 1010.9 1009.2 7.2
24/02:00am 11.4 11.0 11.2 99 0.1 SE 4 6 2 3 1011.2 1009.5 7.2
24/01:48am 11.5 11.2 11.3 99 0.1 SE 4 7 2 4 1011.4 1009.7 7.2
24/01:30am 11.0 11.3 10.8 99 0.1 CALM 0 0 0 0 1011.8 1010.0 7.2
24/01:00am 11.1 11.0 10.9 99 0.1 SE 2 7 1 4 1011.9 1010.1 7.2
24/12:42am 10.6 9.4 10.4 99 0.1 SE 7 9 4 5 1011.8 1010.0 7.2
24/12:30am 10.7 10.5 10.5 99 0.1 SE 2 6 1 3 1011.8 1010.0 7.2
24/12:21am 10.9 10.8 10.7 99 0.1 SE 2 6 1 3 1011.7 1009.9 7.2
24/12:05am 10.8 11.0 10.6 99 0.1 CALM 0 0 0 0 1011.6 1009.8 7.2
24/12:00am 11.2 11.5 11.0 99 0.1 CALM 0 0 0 0 1011.7 1009.9 7.2
 
Date/Time
EDT
Temp
°C
App
Temp
°C
Dew
Point
°C
Rel
Hum
%
Delta-T
°C
Wind Press
QNH
hPa
Press
MSL
hPa
Rain since
9am
mm
Dir  Spd
km/h
Gust
km/h
Spd
kts
Gust
kts
23/11:30pm 11.4 11.7 10.9 97 0.3 CALM 0 0 0 0 1011.4 1009.7 7.2
23/11:00pm 13.0 12.5 12.8 99 0.1 WNW 7 11 4 6 1011.2 1009.5 7.2
23/10:30pm 13.3 13.8 12.8 97 0.3 NW 2 7 1 4 1010.8 1009.1 7.2
23/10:00pm 13.1 12.6 12.5 96 0.3 E 7 11 4 6 1010.9 1009.2 7.2
23/09:30pm 14.0 13.3 13.2 95 0.5 WSW 9 11 5 6 1010.5 1008.7 7.2
23/09:00pm 14.6 13.2 13.3 92 0.7 W 13 17 7 9 1010.1 1008.3 7.0
23/08:30pm 15.3 13.2 13.5 89 1.0 W 17 22 9 12 1009.9 1008.1 7.0
23/08:00pm 15.7 13.9 13.4 86 1.3 W 15 19 8 10 1009.4 1007.7 7.0
23/07:30pm 16.8 14.6 13.3 80 2.0 W 17 22 9 12 1009.1 1007.3 7.0
23/07:00pm 17.8 16.3 14.1 79 2.2 WSW 15 20 8 11 1008.9 1007.1 7.0
23/06:30pm 17.5 13.4 13.8 79 2.2 W 28 39 15 21 1008.6 1006.8 7.0
23/06:00pm 17.9 11.9 13.2 74 2.7 WNW 37 46 20 25 1007.7 1005.9 7.0
23/05:30pm 18.6 14.2 14.1 75 2.7 WNW 30 44 16 24 1007.3 1005.5 7.0
23/05:00pm 17.0 14.6 14.5 85 1.5 NW 20 28 11 15 1006.9 1005.1 7.0
23/04:30pm 15.8 14.3 14.2 90 0.9 NW 15 22 8 12 1006.8 1005.0 7.0
23/04:00pm 15.6 14.2 14.5 93 0.6 WNW 15 22 8 12 1006.8 1005.0 7.0
23/03:30pm 15.1 14.1 14.6 97 0.3 N 13 17 7 9 1007.2 1005.4 7.0
23/03:00pm 14.0 13.0 13.5 97 0.3 NW 11 17 6 9 1008.6 1006.8 7.0
23/02:48pm 13.6 12.2 13.3 98 0.2 W 13 22 7 12 1009.0 1007.2 7.0
23/02:43pm 13.5 10.6 13.0 97 0.3 W 20 32 11 17 1009.3 1007.6 6.8
23/02:30pm 13.4 6.7 12.3 93 0.6 WSW 39 65 21 35 1009.7 1008.0 6.0
23/02:24pm 13.6 6.7 11.5 87 1.2 WSW 39 65 21 35 1009.9 1008.1 4.4
23/02:21pm 16.4 10.6 12.8 79 2.1 W 35 61 19 33 1009.6 1007.9 0.8
23/02:09pm 19.3 14.8 14.8 75 2.7 WNW 32 50 17 27 1007.9 1006.2 0.8
23/02:00pm 19.7 14.0 14.1 70 3.3 NW 37 50 20 27 1007.7 1005.9 0.8
23/01:30pm 20.2 13.5 14.6 70 3.4 WNW 43 61 23 33 1007.8 1006.1 0.8
23/01:18pm 20.7 13.9 14.4 67 3.8 WNW 43 63 23 34 1007.7 1005.9 0.8
23/01:00pm 20.6 14.7 14.7 69 3.6 NW 39 54 21 29 1007.5 1005.7 0.8
23/12:43pm 20.3 14.9 15.1 72 3.2 NW 37 56 20 30 1008.5 1006.7 0.8
23/12:30pm 20.1 14.2 14.7 71 3.2 WNW 39 56 21 30 1008.6 1006.8 0.8
23/12:00pm 20.1 13.3 14.7 71 3.3 WNW 44 65 24 35 1009.1 1007.3 0.8
23/11:47am 21.0 17.1 16.4 75 2.9 W 32 56 17 30 1009.1 1007.3 0.8
23/11:35am 20.3 16.1 16.1 77 2.6 WNW 33 50 18 27 1008.5 1006.7 0.8
23/11:30am 20.1 15.0 15.7 76 2.7 NW 37 50 20 27 1008.1 1006.4 0.8
23/11:10am 20.2 14.9 16.2 78 2.5 NNW 39 57 21 31 1007.7 1005.9 0.8
23/11:00am 20.4 16.1 16.8 80 2.2 NW 35 52 19 28 1008.7 1006.9 0.8
23/10:59am 20.5 16.6 16.9 80 2.2 NW 33 52 18 28 1008.8 1007.0 0.8
23/10:30am 20.3 18.7 17.5 84 1.8 WNW 22 41 12 22 1010.0 1008.2 0.8
23/10:00am 18.7 18.4 18.2 97 0.3 NW 17 22 9 12 1010.4 1008.6 0.8
23/09:30am 17.8 16.6 17.5 98 0.2 NNW 20 28 11 15 1010.2 1008.4 0.6
23/09:00am 17.9 17.3 17.6 98 0.2 W 17 26 9 14 1011.7 1009.9 16.0
23/08:30am 18.6 17.2 17.1 91 0.9 W 20 30 11 16 1011.8 1010.0 15.4
23/08:00am 18.3 18.8 17.5 95 0.5 WNW 11 15 6 8 1011.3 1009.6 15.4
23/07:30am 17.8 18.2 17.3 97 0.3 WNW 11 15 6 8 1010.9 1009.2 15.4
23/07:00am 17.3 17.6 17.1 99 0.1 NNW 11 15 6 8 1010.6 1008.9 15.4
23/06:30am 16.7 16.8 16.5 99 0.1 NNW 11 15 6 8 1010.8 1009.1 15.4
23/06:00am 16.3 17.0 16.1 99 0.1 NNW 7 11 4 6 1011.6 1009.8 15.4
23/05:30am 16.3 15.5 16.1 99 0.1 N 15 20 8 11 1011.0 1009.3 15.0
23/05:00am 16.2 15.0 16.0 99 0.1 N 17 19 9 10 1011.8 1010.0 14.8
23/04:30am 16.0 16.6 15.8 99 0.1 N 7 11 4 6 1012.2 1010.5 14.4
23/04:00am 16.1 16.7 15.9 99 0.1 N 7 9 4 5 1013.1 1011.4 14.2
23/03:39am 16.2 17.8 16.0 99 0.1 WSW 2 9 1 5 1013.5 1011.8 13.8
23/03:30am 16.1 16.9 15.9 99 0.1 WSW 6 7 3 4 1013.9 1012.2 13.6
23/03:19am 16.2 16.5 16.0 99 0.1 W 9 15 5 8 1014.2 1012.5 13.2
23/03:04am 16.2 17.4 16.0 99 0.1 WSW 4 9 2 5 1014.5 1012.8 11.2
23/03:00am 16.2 17.1 16.0 99 0.1 WSW 6 11 3 6 1014.4 1012.7 11.0
23/02:30am 16.3 16.2 16.1 99 0.1 WSW 11 17 6 9 1015.0 1013.3 7.4
23/02:24am 16.3 15.9 16.1 99 0.1 WSW 13 19 7 10 1015.0 1013.3 6.6
23/02:16am 16.3 14.5 16.1 99 0.1 SW 20 28 11 15 1015.0 1013.3 5.4
23/02:00am 16.5 12.5 16.3 99 0.1 SW 32 44 17 24 1014.4 1012.7 4.2
23/01:48am 17.3 11.8 16.7 96 0.4 WSW 41 59 22 32 1014.7 1013.1 2.2
23/01:42am 17.6 11.6 16.8 95 0.5 W 44 59 24 32 1014.6 1012.9 1.4
23/01:41am 17.7 11.8 16.7 94 0.6 W 43 59 23 32 1014.6 1012.9 1.0
23/01:36am 18.1 16.8 17.3 95 0.5 W 20 56 11 30 1014.4 1012.7 0.2
23/01:33am 17.2 18.2 16.9 98 0.2 SW 7 41 4 22 1013.6 1011.9 0.2
23/01:30am 17.2 19.5 16.7 97 0.3 CALM 0 11 0 6 1012.3 1010.6 0.2
23/01:00am 17.2 19.4 16.4 95 0.5 CALM 0 0 0 0 1012.7 1011.0 0.0
23/12:30am 17.1 19.0 15.8 92 0.8 CALM 0 0 0 0 1013.3 1011.5 0.0
23/12:00am 16.5 18.2 15.2 92 0.8 CALM 0 0 0 0 1014.1 1012.4 0.0
 
Date/Time
EDT
Temp
°C
App
Temp
°C
Dew
Point
°C
Rel
Hum
%
Delta-T
°C
Wind Press
QNH
hPa
Press
MSL
hPa
Rain since
9am
mm
Dir  Spd
km/h
Gust
km/h
Spd
kts
Gust
kts
22/11:30pm 16.6 16.5 16.0 96 0.4 SSW 11 17 6 9 1014.1 1012.4 0.0
22/11:00pm 16.9 18.5 15.9 94 0.6 NW 2 7 1 4 1014.4 1012.7 0.0
22/10:30pm 17.3 18.0 15.6 90 1.0 NW 6 7 3 4 1015.0 1013.3 0.0
22/10:00pm 17.0 19.0 15.9 93 0.7 CALM 0 0 0 0 1015.0 1013.3 0.0
22/09:30pm 16.8 17.8 14.4 86 1.4 NW 2 7 1 4 1015.0 1013.3 0.0
22/09:00pm 17.1 17.5 13.6 80 2.0 NW 4 7 2 4 1015.0 1013.3 0.0
22/08:30pm 20.0 18.9 14.4 70 3.4 NW 13 13 7 7 1014.6 1012.9 0.0
22/08:00pm 20.9 20.1 14.1 65 4.1 NW 11 15 6 8 1014.7 1013.1 0.0

Latest Capital City Observations: Canberra | Sydney | Melbourne | Brisbane | Adelaide | Perth | Hobart | Darwin

Other formats

Comma delimited format used in spreadsheet applications
http://www.bom.gov.au/fwo/IDN60903/IDN60903.95716.axf

JavaScript Object Notation format (JSON) in row-major order
http://www.bom.gov.au/fwo/IDN60903/IDN60903.95716.json

Data quality

Most of these data are generated automatically and are frequently updated. Quality checks on data are not normally performed. It is possible for incorrect values to appear. Refer to information at About Latest Weather Observations and please check the disclaimer before using these data.